Time;durP1;ratioP1;P1;durP2;ratioP2;P2;SDS_P1;SDS_P2;PMS_P1;PMS_P2;Temp;Humidity;BMP_temperature;BMP_pressure;BME280_temperature;BME280_humidity;BME280_pressure;Samples;Min_cycle;Max_cycle;Signal;HPM_P1;HPM_P2
2022/06/24 00:01:40;;;;;;;;;;;;;;;;;;4991149;28;9006;-85
2022/06/24 00:04:05;;;;;;;;;;;;;;;;;;4990847;28;7333;-84
2022/06/24 00:06:44;;;;;;;;;;;;;;;;;;4990976;28;8404;-86
2022/06/24 00:09:12;;;;;;;;;;;;;;;;;;4990501;28;8420;-85
2022/06/24 00:11:38;;;;;;;;;;;;;;;;;;4991011;28;9239;-85
2022/06/24 00:14:07;;;;;;;;;;;;;;;;;;4990475;28;7329;-84
2022/06/24 00:16:53;;;;;;;;;;;;;;;;;;4990894;28;8411;-86
2022/06/24 00:19:19;;;;;;;;;;;;;;;;;;4990706;28;8703;-85
2022/06/24 00:21:55;;;;;;;;;;;;;;;;;;4990630;28;7156;-85
2022/06/24 00:24:21;;;;;;;;;;;;;;;;;;4990713;28;8482;-84
2022/06/24 00:26:47;;;;;;;;;;;;;;;;;;4990794;28;8683;-84
2022/06/24 00:29:17;;;;;;;;;;;;;;;;;;4990645;28;8426;-84
2022/06/24 00:31:58;;;;;;;;;;;;;;;;;;4991889;28;8687;-85
2022/06/24 00:34:24;;;;;;;;;;;;;;;;;;4993974;28;7027;-85
2022/06/24 00:36:49;;;;;;;;;;;;;;;;;;4994235;28;7109;-86
2022/06/24 00:39:15;;;;;;;;;;;;;;;;;;4994387;28;8444;-85
2022/06/24 00:41:41;;;;;;;;;;;;;;;;;;4995021;28;8776;-86
2022/06/24 00:44:11;;;;;;;;;;;;;;;;;;4993716;28;8479;-83
2022/06/24 00:46:40;;;;;;;;;;;;;;;;;;4993838;28;7230;-85
2022/06/24 00:49:09;;;;;;;;;;;;;;;;;;4994253;28;7007;-85
2022/06/24 00:51:38;;;;;;;;;;;;;;;;;;4993820;28;8495;-86
2022/06/24 00:54:11;;;;;;;;;;;;;;;;;;4993750;28;8425;-85
2022/06/24 00:56:37;;;;;;;;;;;;;;;;;;4994040;28;8415;-85
2022/06/24 00:59:05;;;;;;;;;;;;;;;;;;4993890;28;8511;-85
2022/06/24 01:01:33;;;;;;;;;;;;;;;;;;4994415;28;7046;-85
2022/06/24 01:04:00;;;;;;;;;;;;;;;;;;4977129;28;7181;-85
2022/06/24 01:06:27;;;;;;;;;;;;;;;;;;4993509;28;8448;-85
2022/06/24 01:08:53;;;;;;;;;;;;;;;;;;4993659;28;7489;-85
2022/06/24 01:11:27;;;;;;;;;;;;;;;;;;4993337;28;7141;-85
2022/06/24 01:13:53;;;;;;;;;;;;;;;;;;4977562;28;9623;-84
2022/06/24 01:16:23;;;;;;;;;;;;;;;;;;4993516;28;8508;-85
2022/06/24 01:18:53;;;;;;;;;;;;;;;;;;4993348;28;8718;-86
2022/06/24 01:21:33;;;;;;;;;;;;;;;;;;4993574;28;8564;-84
2022/06/24 01:24:03;;;;;;;;;;;;;;;;;;4977257;28;8480;-85
2022/06/24 01:26:28;;;;;;;;;;;;;;;;;;4993858;28;7518;-85
2022/06/24 01:28:54;;;;;;;;;;;;;;;;;;4993176;28;8470;-85
2022/06/24 01:31:19;;;;;;;;;;;;;;;;;;4993169;28;8435;-85
2022/06/24 01:33:45;;;;;;;;;;;;;;;;;;4993306;28;7026;-84
2022/06/24 01:36:10;;;;;;;;;;;;;;;;;;4993288;28;7017;-85
2022/06/24 01:38:36;;;;;;;;;;;;;;;;;;4993094;28;7165;-84
2022/06/24 01:41:01;;;;;;;;;;;;;;;;;;4993255;28;8831;-86
2022/06/24 01:43:27;;;;;;;;;;;;;;;;;;4992033;28;7337;-85
2022/06/24 01:45:52;;;;;;;;;;;;;;;;;;4993311;28;7156;-85
2022/06/24 01:48:17;;;;;;;;;;;;;;;;;;4992964;28;7160;-87
2022/06/24 01:50:43;;;;;;;;;;;;;;;;;;4993064;28;8752;-85
2022/06/24 01:53:09;;;;;;;;;;;;;;;;;;4992705;28;8785;-84
2022/06/24 01:55:34;;;;;;;;;;;;;;;;;;4992548;28;8404;-85
2022/06/24 01:58:00;;;;;;;;;;;;;;;;;;4992908;28;7036;-86
2022/06/24 02:00:26;;;;;;;;;;;;;;;;;;4992934;28;7013;-85
2022/06/24 02:02:52;;;;;;;;;;;;;;;;;;4992182;28;7180;-85
2022/06/24 02:05:19;;;;;;;;;;;;;;;;;;4993109;28;7179;-85
2022/06/24 02:07:45;;;;;;;;;;;;;;;;;;4992609;28;8677;-85
2022/06/24 02:15:38;;;;;;;;;;;;;;;;;;4977405;28;6808;-85
2022/06/24 02:18:04;;;;;;;;;;;;;;;;;;4992183;28;9681;-85
2022/06/24 02:20:29;;;;;;;;;;;;;;;;;;4992434;28;8714;-85
2022/06/24 02:22:55;;;;;;;;;;;;;;;;;;4991906;28;7055;-86
2022/06/24 02:25:20;;;;;;;;;;;;;;;;;;4992376;28;8783;-85
2022/06/24 02:27:47;;;;;;;;;;;;;;;;;;4992417;28;8411;-84
2022/06/24 02:30:12;;;;;;;;;;;;;;;;;;4992345;28;7263;-84
2022/06/24 02:32:38;;;;;;;;;;;;;;;;;;4992704;28;8382;-86
2022/06/24 02:35:04;;;;;;;;;;;;;;;;;;4992208;28;6978;-85
2022/06/24 02:37:29;;;;;;;;;;;;;;;;;;4991755;28;8696;-86
2022/06/24 02:39:54;;;;;;;;;;;;;;;;;;4992280;28;7118;-86
2022/06/24 02:42:20;;;;;;;;;;;;;;;;;;4992056;28;8803;-85
2022/06/24 02:44:45;;;;;;;;;;;;;;;;;;4992481;28;7180;-85
2022/06/24 02:47:11;;;;;;;;;;;;;;;;;;4991520;28;8404;-85
2022/06/24 02:49:36;;;;;;;;;;;;;;;;;;4992043;28;8554;-85
2022/06/24 02:52:02;;;;;;;;;;;;;;;;;;4991537;28;7085;-85
2022/06/24 02:54:28;;;;;;;;;;;;;;;;;;4992549;28;8399;-86
2022/06/24 02:56:53;;;;;;;;;;;;;;;;;;4992029;28;8404;-85
2022/06/24 02:59:18;;;;;;;;;;;;;;;;;;4991288;28;7386;-86
2022/06/24 03:01:44;;;;;;;;;;;;;;;;;;4992187;28;8467;-85
2022/06/24 03:04:10;;;;;;;;;;;;;;;;;;4991232;28;7048;-85
2022/06/24 03:06:35;;;;;;;;;;;;;;;;;;4991601;28;8483;-85
2022/06/24 03:09:01;;;;;;;;;;;;;;;;;;4991282;28;8519;-85
2022/06/24 03:11:26;;;;;;;;;;;;;;;;;;4991812;28;8392;-86
2022/06/24 03:13:52;;;;;;;;;;;;;;;;;;4991502;28;8741;-85
2022/06/24 03:16:17;;;;;;;;;;;;;;;;;;4991420;28;8475;-85
2022/06/24 03:18:43;;;;;;;;;;;;;;;;;;4991489;28;8456;-86
2022/06/24 03:21:09;;;;;;;;;;;;;;;;;;4991738;28;8671;-86
2022/06/24 03:23:34;;;;;;;;;;;;;;;;;;4991116;28;7602;-86
2022/06/24 03:26:03;;;;;;;;;;;;;;;;;;4991953;28;8569;-86
2022/06/24 03:28:29;;;;;;;;;;;;;;;;;;4991657;28;8550;-86
2022/06/24 03:30:54;;;;;;;;;;;;;;;;;;4991184;28;7018;-86
2022/06/24 03:33:20;;;;;;;;;;;;;;;;;;4990969;28;8671;-85
2022/06/24 03:35:46;;;;;;;;;;;;;;;;;;4990845;28;7168;-85
2022/06/24 03:38:12;;;;;;;;;;;;;;;;;;4991791;28;7272;-85
2022/06/24 03:40:38;;;;;;;;;;;;;;;;;;4991066;28;7412;-86
2022/06/24 03:43:03;;;;;;;;;;;;;;;;;;4990804;28;8290;-86
2022/06/24 03:45:29;;;;;;;;;;;;;;;;;;4990929;28;8478;-86
2022/06/24 03:47:55;;;;;;;;;;;;;;;;;;4990943;28;8448;-85
2022/06/24 03:50:20;;;;;;;;;;;;;;;;;;4991048;28;8432;-86
2022/06/24 03:52:46;;;;;;;;;;;;;;;;;;4990769;28;7350;-86
2022/06/24 03:55:11;;;;;;;;;;;;;;;;;;4990879;28;7163;-87
2022/06/24 03:57:37;;;;;;;;;;;;;;;;;;4990809;28;7149;-86
2022/06/24 04:00:07;;;;;;;;;;;;;;;;;;4991251;28;7379;-85
2022/06/24 04:02:32;;;;;;;;;;;;;;;;;;4991372;28;7443;-85
2022/06/24 04:04:58;;;;;;;;;;;;;;;;;;4991380;28;8411;-86
2022/06/24 04:07:23;;;;;;;;;;;;;;;;;;4993252;28;8598;-86
2022/06/24 04:09:49;;;;;;;;;;;;;;;;;;4995212;28;8961;-85
2022/06/24 04:12:15;;;;;;;;;;;;;;;;;;4994873;28;7046;-86
2022/06/24 04:17:24;;;;;;;;;;;;;;;;;;4979935;28;6819;-85
2022/06/24 04:19:52;;;;;;;;;;;;;;;;;;4994416;28;8660;-86
2022/06/24 04:22:18;;;;;;;;;;;;;;;;;;4994929;28;7157;-85
2022/06/24 04:24:43;;;;;;;;;;;;;;;;;;4994199;28;7038;-85
2022/06/24 04:27:09;;;;;;;;;;;;;;;;;;4994866;28;8435;-86
2022/06/24 04:29:34;;;;;;;;;;;;;;;;;;4994702;28;8430;-86
2022/06/24 04:32:00;;;;;;;;;;;;;;;;;;4994349;28;7011;-85
2022/06/24 04:34:26;;;;;;;;;;;;;;;;;;4994422;28;7025;-86
2022/06/24 04:36:51;;;;;;;;;;;;;;;;;;4994754;28;8324;-86
2022/06/24 04:39:17;;;;;;;;;;;;;;;;;;4993925;28;8739;-85
2022/06/24 04:41:43;;;;;;;;;;;;;;;;;;4993975;28;7243;-86
2022/06/24 04:44:08;;;;;;;;;;;;;;;;;;4994376;28;7159;-85
2022/06/24 04:46:34;;;;;;;;;;;;;;;;;;4994244;28;8395;-85
2022/06/24 04:49:00;;;;;;;;;;;;;;;;;;4994360;28;8570;-86
2022/06/24 04:51:28;;;;;;;;;;;;;;;;;;4993961;28;8505;-85
2022/06/24 04:53:54;;;;;;;;;;;;;;;;;;4993746;28;8663;-85
2022/06/24 04:56:19;;;;;;;;;;;;;;;;;;4993735;28;8687;-86
2022/06/24 04:58:45;;;;;;;;;;;;;;;;;;4993795;28;7015;-86
2022/06/24 05:01:10;;;;;;;;;;;;;;;;;;4993659;28;8696;-85
2022/06/24 05:03:36;;;;;;;;;;;;;;;;;;4993506;28;8438;-85
2022/06/24 05:06:02;;;;;;;;;;;;;;;;;;4994332;28;8754;-85
2022/06/24 05:08:27;;;;;;;;;;;;;;;;;;4993562;28;7040;-86
2022/06/24 05:10:53;;;;;;;;;;;;;;;;;;4993546;28;7050;-85
2022/06/24 05:13:19;;;;;;;;;;;;;;;;;;4993512;28;8356;-85
2022/06/24 05:15:44;;;;;;;;;;;;;;;;;;4993662;28;7014;-85
2022/06/24 05:18:10;;;;;;;;;;;;;;;;;;4993391;28;9274;-86
2022/06/24 05:20:36;;;;;;;;;;;;;;;;;;4993392;28;8382;-85
2022/06/24 05:23:01;;;;;;;;;;;;;;;;;;4986797;28;7142;-84
2022/06/24 05:25:27;;;;;;;;;;;;;;;;;;5011398;28;8452;-84
2022/06/24 05:27:52;;;;;;;;;;;;;;;;;;5009543;28;7377;-81
2022/06/24 05:30:18;;;;;;;;;;;;;;;;;;4983963;28;8341;-81
2022/06/24 05:32:43;;;;;;;;;;;;;;;;;;4994821;28;8611;-81
2022/06/24 05:35:09;;;;;;;;;;;;;;;;;;4980271;28;12110;-81
2022/06/24 05:37:37;;;;;;;;;;;;;;;;;;4991192;28;7195;-82
2022/06/24 05:40:03;;;;;;;;;;;;;;;;;;4975774;28;7027;-83
2022/06/24 05:42:29;;;;;;;;;;;;;;;;;;4975645;28;7074;-85
2022/06/24 05:44:54;;;;;;;;;;;;;;;;;;4974842;28;7167;-86
2022/06/24 05:47:19;;;;;;;;;;;;;;;;;;4965456;28;7139;-84
2022/06/24 05:49:45;;;;;;;;;;;;;;;;;;4956135;28;8513;-85
2022/06/24 05:52:11;;;;;;;;;;;;;;;;;;4956175;28;7029;-86
2022/06/24 05:57:20;;;;;;;;;;;;;;;;;;4973629;28;6828;-85
2022/06/24 05:59:45;;;;;;;;;;;;;;;;;;4973699;28;7060;-85
2022/06/24 06:02:11;;;;;;;;;;;;;;;;;;4975186;28;7447;-85
2022/06/24 06:04:37;;;;;;;;;;;;;;;;;;4991050;28;7057;-86
2022/06/24 06:07:02;;;;;;;;;;;;;;;;;;4974041;28;8701;-84
2022/06/24 06:09:28;;;;;;;;;;;;;;;;;;4975252;28;7178;-85
2022/06/24 06:11:53;;;;;;;;;;;;;;;;;;4975053;28;8503;-86
2022/06/24 06:14:19;;;;;;;;;;;;;;;;;;4974531;28;7182;-86
2022/06/24 06:16:47;;;;;;;;;;;;;;;;;;4974905;28;8670;-84
2022/06/24 06:19:13;;;;;;;;;;;;;;;;;;4975244;28;7407;-85
2022/06/24 06:21:38;;;;;;;;;;;;;;;;;;4973689;28;7179;-84
2022/06/24 06:24:04;;;;;;;;;;;;;;;;;;4971853;28;7172;-86
2022/06/24 06:26:29;;;;;;;;;;;;;;;;;;4975373;28;7009;-85
2022/06/24 06:28:55;;;;;;;;;;;;;;;;;;4974020;28;7417;-85
2022/06/24 06:31:20;;;;;;;;;;;;;;;;;;4975011;28;8415;-86
2022/06/24 06:33:46;;;;;;;;;;;;;;;;;;4974669;28;7190;-87
2022/06/24 06:36:12;;;;;;;;;;;;;;;;;;4974623;28;8352;-86
2022/06/24 06:38:39;;;;;;;;;;;;;;;;;;4975225;28;8388;-87
2022/06/24 06:41:04;;;;;;;;;;;;;;;;;;4974456;28;7189;-87
2022/06/24 06:43:30;;;;;;;;;;;;;;;;;;4974254;28;8441;-87
2022/06/24 06:45:56;;;;;;;;;;;;;;;;;;4974964;28;8336;-87
2022/06/24 06:48:22;;;;;;;;;;;;;;;;;;4975012;28;7453;-86
2022/06/24 06:50:52;;;;;;;;;;;;;;;;;;4973953;28;8712;-86
2022/06/24 06:53:18;;;;;;;;;;;;;;;;;;4974805;28;8422;-86
2022/06/24 06:55:43;;;;;;;;;;;;;;;;;;4975336;28;8589;-87
2022/06/24 06:58:08;;;;;;;;;;;;;;;;;;4974147;28;7298;-86
2022/06/24 07:00:34;;;;;;;;;;;;;;;;;;4974608;28;7016;-86
2022/06/24 07:02:59;;;;;;;;;;;;;;;;;;4974475;28;8685;-86
2022/06/24 07:05:25;;;;;;;;;;;;;;;;;;4974009;28;7447;-86
2022/06/24 07:07:50;;;;;;;;;;;;;;;;;;4974717;28;8573;-87
2022/06/24 07:10:16;;;;;;;;;;;;;;;;;;4974159;28;8419;-87
2022/06/24 07:12:41;;;;;;;;;;;;;;;;;;4973538;28;7245;-86
2022/06/24 07:15:07;;;;;;;;;;;;;;;;;;4974772;28;8428;-85
2022/06/24 07:17:32;;;;;;;;;;;;;;;;;;4974433;28;8460;-85
2022/06/24 07:19:58;;;;;;;;;;;;;;;;;;4974127;28;7180;-86
2022/06/24 07:22:23;;;;;;;;;;;;;;;;;;4972986;28;8455;-86
2022/06/24 07:24:49;;;;;;;;;;;;;;;;;;4990204;28;7239;-86
2022/06/24 07:27:14;;;;;;;;;;;;;;;;;;4973855;28;7055;-86
2022/06/24 07:29:40;;;;;;;;;;;;;;;;;;4973645;28;7348;-85
2022/06/24 07:32:06;;;;;;;;;;;;;;;;;;4973479;28;7273;-86
2022/06/24 07:34:32;;;;;;;;;;;;;;;;;;4974165;28;8465;-86
2022/06/24 07:36:59;;;;;;;;;;;;;;;;;;4973935;28;8410;-86
2022/06/24 07:39:24;;;;;;;;;;;;;;;;;;4974374;28;7223;-85
2022/06/24 07:41:50;;;;;;;;;;;;;;;;;;4975048;28;8525;-85
2022/06/24 07:44:16;;;;;;;;;;;;;;;;;;4976874;28;8505;-86
2022/06/24 07:46:42;;;;;;;;;;;;;;;;;;4977609;28;7182;-86
2022/06/24 07:49:07;;;;;;;;;;;;;;;;;;4977869;28;8600;-86
2022/06/24 07:51:33;;;;;;;;;;;;;;;;;;4977770;28;8443;-86
2022/06/24 07:53:58;;;;;;;;;;;;;;;;;;4977563;28;7145;-86
2022/06/24 07:59:08;;;;;;;;;;;;;;;;;;4979027;28;6970;-86
2022/06/24 08:01:34;;;;;;;;;;;;;;;;;;4977955;28;7273;-86
2022/06/24 08:04:00;;;;;;;;;;;;;;;;;;4977392;28;8455;-86
2022/06/24 08:06:26;;;;;;;;;;;;;;;;;;4977430;28;7431;-86
2022/06/24 08:08:51;;;;;;;;;;;;;;;;;;4977269;28;7155;-86
2022/06/24 08:11:17;;;;;;;;;;;;;;;;;;4977956;28;8367;-86
2022/06/24 08:13:43;;;;;;;;;;;;;;;;;;4977186;28;7293;-86
2022/06/24 08:16:09;;;;;;;;;;;;;;;;;;4977806;28;9366;-86
2022/06/24 08:18:34;;;;;;;;;;;;;;;;;;4977315;28;7419;-85
2022/06/24 08:21:00;;;;;;;;;;;;;;;;;;4969487;28;8780;-86
2022/06/24 08:23:26;;;;;;;;;;;;;;;;;;4976146;28;7229;-85
2022/06/24 08:25:51;;;;;;;;;;;;;;;;;;4977459;28;8444;-86
2022/06/24 08:28:17;;;;;;;;;;;;;;;;;;4975965;28;7285;-86
2022/06/24 08:30:43;;;;;;;;;;;;;;;;;;4893154;28;12097;-86
2022/06/24 08:33:08;;;;;;;;;;;;;;;;;;4976702;28;8359;-86
2022/06/24 08:35:34;;;;;;;;;;;;;;;;;;4976943;28;7046;-85
2022/06/24 08:37:59;;;;;;;;;;;;;;;;;;4977336;28;6874;-86
2022/06/24 08:40:26;;;;;;;;;;;;;;;;;;4977047;28;8638;-86
2022/06/24 08:42:54;;;;;;;;;;;;;;;;;;4976713;28;7077;-87
2022/06/24 08:45:19;;;;;;;;;;;;;;;;;;4992644;28;7075;-87
2022/06/24 08:47:45;;;;;;;;;;;;;;;;;;4976604;28;6843;-86
2022/06/24 08:50:11;;;;;;;;;;;;;;;;;;4976396;28;8830;-87
2022/06/24 08:52:40;;;;;;;;;;;;;;;;;;4976540;28;8420;-87
2022/06/24 08:55:06;;;;;;;;;;;;;;;;;;4976241;28;7295;-87
2022/06/24 08:57:31;;;;;;;;;;;;;;;;;;4976654;28;7276;-87
2022/06/24 08:59:57;;;;;;;;;;;;;;;;;;4976710;28;7049;-87
2022/06/24 09:02:22;;;;;;;;;;;;;;;;;;4976610;28;7131;-87
2022/06/24 09:04:48;;;;;;;;;;;;;;;;;;4975624;28;7153;-87
2022/06/24 09:07:18;;;;;;;;;;;;;;;;;;4976583;28;8735;-87
2022/06/24 09:09:55;;;;;;;;;;;;;;;;;;4976956;28;7518;-87
2022/06/24 09:12:21;;;;;;;;;;;;;;;;;;4977089;28;7119;-86
2022/06/24 09:14:48;;;;;;;;;;;;;;;;;;4976177;28;8551;-86
2022/06/24 09:17:14;;;;;;;;;;;;;;;;;;4976405;28;7231;-79
2022/06/24 09:19:39;;;;;;;;;;;;;;;;;;4975713;28;8399;-79
2022/06/24 09:22:08;;;;;;;;;;;;;;;;;;4978951;28;8423;-86
2022/06/24 09:24:45;;;;;;;;;;;;;;;;;;4976886;28;8444;-87
2022/06/24 09:27:10;;;;;;;;;;;;;;;;;;4976213;28;8511;-86
2022/06/24 09:29:36;;;;;;;;;;;;;;;;;;4976144;28;8497;-86
2022/06/24 09:32:05;;;;;;;;;;;;;;;;;;4976434;28;8508;-87
2022/06/24 09:34:30;;;;;;;;;;;;;;;;;;4975697;28;7759;-87
2022/06/24 09:36:55;;;;;;;;;;;;;;;;;;4976288;28;7199;-87
2022/06/24 09:39:22;;;;;;;;;;;;;;;;;;4976847;28;8475;-86
2022/06/24 09:41:49;;;;;;;;;;;;;;;;;;4974480;28;8485;-86
2022/06/24 09:44:16;;;;;;;;;;;;;;;;;;4975728;28;9952;-87
2022/06/24 09:46:41;;;;;;;;;;;;;;;;;;4975225;28;8528;-87
2022/06/24 09:49:09;;;;;;;;;;;;;;;;;;4975440;28;8364;-87
2022/06/24 09:51:35;;;;;;;;;;;;;;;;;;4975723;28;9040;-87
2022/06/24 09:54:01;;;;;;;;;;;;;;;;;;4975788;28;7158;-86
2022/06/24 09:56:28;;;;;;;;;;;;;;;;;;4975529;28;8469;-87
2022/06/24 10:01:40;;;;;;;;;;;;;;;;;;4977163;28;6834;-86
2022/06/24 10:04:09;;;;;;;;;;;;;;;;;;4973820;28;8365;-87
2022/06/24 10:06:36;;;;;;;;;;;;;;;;;;4975003;28;8415;-87
2022/06/24 10:09:04;;;;;;;;;;;;;;;;;;4974914;28;7565;-87
2022/06/24 10:11:33;;;;;;;;;;;;;;;;;;4975102;28;8478;-87
2022/06/24 10:13:59;;;;;;;;;;;;;;;;;;4975139;28;8731;-87
2022/06/24 10:16:25;;;;;;;;;;;;;;;;;;4975403;28;8545;-87
2022/06/24 10:18:52;;;;;;;;;;;;;;;;;;4975070;28;8829;-87
2022/06/24 10:21:19;;;;;;;;;;;;;;;;;;4975051;28;8782;-86
2022/06/24 10:23:49;;;;;;;;;;;;;;;;;;4975293;28;8464;-86
2022/06/24 10:26:25;;;;;;;;;;;;;;;;;;4974911;28;8442;-86
2022/06/24 10:29:13;;;;;;;;;;;;;;;;;;4974726;28;7417;-86
2022/06/24 10:31:45;;;;;;;;;;;;;;;;;;4975071;28;8505;-87
2022/06/24 10:34:12;;;;;;;;;;;;;;;;;;4990802;28;8778;-86
2022/06/24 10:36:38;;;;;;;;;;;;;;;;;;4974722;28;8600;-86
2022/06/24 10:39:12;;;;;;;;;;;;;;;;;;4974438;28;8446;-87
2022/06/24 10:41:38;;;;;;;;;;;;;;;;;;4974506;28;7203;-87
2022/06/24 10:44:23;;;;;;;;;;;;;;;;;;4974922;28;7164;-87
2022/06/24 10:47:04;;;;;;;;;;;;;;;;;;4974834;28;8374;-87
2022/06/24 10:49:48;;;;;;;;;;;;;;;;;;4990769;28;7466;-87
2022/06/24 10:52:32;;;;;;;;;;;;;;;;;;4990832;28;9503;-87
2022/06/24 10:55:15;;;;;;;;;;;;;;;;;;4990730;28;7247;-87
2022/06/24 10:57:41;;;;;;;;;;;;;;;;;;4990728;28;8502;-87
2022/06/24 11:00:14;;;;;;;;;;;;;;;;;;4974318;28;8507;-87
2022/06/24 11:02:40;;;;;;;;;;;;;;;;;;4973981;28;7066;-87
2022/06/24 11:05:12;;;;;;;;;;;;;;;;;;4973879;28;7052;-87
2022/06/24 11:07:49;;;;;;;;;;;;;;;;;;4973943;28;7087;-87
2022/06/24 11:10:19;;;;;;;;;;;;;;;;;;4989338;28;8400;-86
2022/06/24 11:12:52;;;;;;;;;;;;;;;;;;4974600;28;8758;-87
2022/06/24 11:15:18;;;;;;;;;;;;;;;;;;4974314;28;7166;-87
2022/06/24 11:17:44;;;;;;;;;;;;;;;;;;4974067;28;7415;-88
2022/06/24 11:20:12;;;;;;;;;;;;;;;;;;4974199;28;7174;-90
2022/06/24 11:22:42;;;;;;;;;;;;;;;;;;4974529;28;8451;-88
2022/06/24 11:25:11;;;;;;;;;;;;;;;;;;4973949;28;7070;-87
2022/06/24 11:27:37;;;;;;;;;;;;;;;;;;4974248;28;8278;-87
2022/06/24 11:30:04;;;;;;;;;;;;;;;;;;4974053;28;8435;-88
2022/06/24 11:32:29;;;;;;;;;;;;;;;;;;4973640;28;7064;-88
2022/06/24 11:34:55;;;;;;;;;;;;;;;;;;4974289;28;8570;-90
2022/06/24 11:37:24;;;;;;;;;;;;;;;;;;4974076;28;8828;-89
2022/06/24 11:39:53;;;;;;;;;;;;;;;;;;4973430;28;7075;-89
2022/06/24 11:42:20;;;;;;;;;;;;;;;;;;4974380;28;8405;-88
2022/06/24 11:44:45;;;;;;;;;;;;;;;;;;4973907;28;7265;-88
2022/06/24 11:47:11;;;;;;;;;;;;;;;;;;4974038;28;8735;-88
2022/06/24 11:49:39;;;;;;;;;;;;;;;;;;4973872;28;8364;-89
2022/06/24 11:52:05;;;;;;;;;;;;;;;;;;4973754;28;7224;-88
2022/06/24 11:54:31;;;;;;;;;;;;;;;;;;4973607;28;8376;-87
2022/06/24 11:56:58;;;;;;;;;;;;;;;;;;4973887;28;8426;-86
2022/06/24 11:59:27;;;;;;;;;;;;;;;;;;4972268;28;7069;-87
2022/06/24 12:01:54;;;;;;;;;;;;;;;;;;4965268;28;8577;-87
2022/06/24 12:04:23;;;;;;;;;;;;;;;;;;4954486;28;8666;-88
2022/06/24 12:06:50;;;;;;;;;;;;;;;;;;4954643;29;8492;-88
2022/06/24 12:09:15;;;;;;;;;;;;;;;;;;4953921;28;7209;-88
2022/06/24 12:11:42;;;;;;;;;;;;;;;;;;4954864;28;8680;-88
2022/06/24 12:14:18;;;;;;;;;;;;;;;;;;4954335;28;8825;-90
2022/06/24 12:17:13;;;;;;;;;;;;;;;;;;4953864;29;8565;-87
2022/06/24 12:19:55;;;;;;;;;;;;;;;;;;4946743;29;8942;-88
2022/06/24 12:22:20;;;;;;;;;;;;;;;;;;4954971;28;8331;-88
2022/06/24 12:24:46;;;;;;;;;;;;;;;;;;4954891;28;8678;-88
2022/06/24 12:27:13;;;;;;;;;;;;;;;;;;4955429;28;8460;-87
2022/06/24 12:29:41;;;;;;;;;;;;;;;;;;4959181;28;8365;-87
2022/06/24 12:32:07;;;;;;;;;;;;;;;;;;4959073;28;8632;-88
2022/06/24 12:34:34;;;;;;;;;;;;;;;;;;4958684;28;9172;-88
2022/06/24 12:37:02;;;;;;;;;;;;;;;;;;4958824;28;7239;-88
2022/06/24 12:39:38;;;;;;;;;;;;;;;;;;4958790;28;7205;-87
2022/06/24 12:42:05;;;;;;;;;;;;;;;;;;4958719;28;7065;-88
2022/06/24 12:44:42;;;;;;;;;;;;;;;;;;4958234;28;8516;-89
2022/06/24 12:52:41;;;;;;;;;;;;;;;;;;4958199;28;6832;-87
2022/06/24 12:55:08;;;;;;;;;;;;;;;;;;4955789;28;8745;-87
2022/06/24 12:57:34;;;;;;;;;;;;;;;;;;4953128;28;12269;-89
2022/06/24 13:00:01;;;;;;;;;;;;;;;;;;4922411;28;12158;-88
2022/06/24 13:02:27;;;;;;;;;;;;;;;;;;4956542;28;8657;-87
2022/06/24 13:04:52;;;;;;;;;;;;;;;;;;4955120;28;9438;-88
2022/06/24 13:07:18;;;;;;;;;;;;;;;;;;4955330;28;8503;-87
2022/06/24 13:09:44;;;;;;;;;;;;;;;;;;4955368;28;8473;-87
2022/06/24 13:12:09;;;;;;;;;;;;;;;;;;4955455;28;8407;-88
2022/06/24 13:14:35;;;;;;;;;;;;;;;;;;4955148;28;8610;-86
2022/06/24 13:17:01;;;;;;;;;;;;;;;;;;4955370;28;7201;-88
2022/06/24 13:19:26;;;;;;;;;;;;;;;;;;4955095;28;8448;-86
2022/06/24 13:21:52;;;;;;;;;;;;;;;;;;4955158;28;8438;-86
2022/06/24 13:24:19;;;;;;;;;;;;;;;;;;4955238;28;8447;-86
2022/06/24 13:26:46;;;;;;;;;;;;;;;;;;4954819;28;7205;-87
2022/06/24 13:29:11;;;;;;;;;;;;;;;;;;4955492;28;7187;-86
2022/06/24 13:31:37;;;;;;;;;;;;;;;;;;4955005;28;8446;-86
2022/06/24 13:34:02;;;;;;;;;;;;;;;;;;4955002;28;7494;-86
2022/06/24 13:36:28;;;;;;;;;;;;;;;;;;4954923;28;8693;-86
2022/06/24 13:38:53;;;;;;;;;;;;;;;;;;4953818;28;8527;-87
2022/06/24 13:41:19;;;;;;;;;;;;;;;;;;4955165;28;7054;-79
2022/06/24 13:43:45;;;;;;;;;;;;;;;;;;4956436;28;7031;-80
2022/06/24 13:46:10;;;;;;;;;;;;;;;;;;4955018;28;9163;-81
2022/06/24 13:48:37;;;;;;;;;;;;;;;;;;4955999;28;7177;-86
2022/06/24 13:51:02;;;;;;;;;;;;;;;;;;4956061;28;8503;-87
2022/06/24 13:53:28;;;;;;;;;;;;;;;;;;4972476;28;8456;-87
2022/06/24 13:55:53;;;;;;;;;;;;;;;;;;4971778;28;8512;-86
2022/06/24 13:58:19;;;;;;;;;;;;;;;;;;4982323;28;8445;-83
2022/06/24 14:00:45;;;;;;;;;;;;;;;;;;4976162;28;7267;-86
2022/06/24 14:03:11;;;;;;;;;;;;;;;;;;4977305;28;9251;-84
2022/06/24 14:05:36;;;;;;;;;;;;;;;;;;4977080;28;6984;-86
2022/06/24 14:08:02;;;;;;;;;;;;;;;;;;4976376;28;8380;-86
2022/06/24 14:10:28;;;;;;;;;;;;;;;;;;4975077;28;8642;-86
2022/06/24 14:12:57;;;;;;;;;;;;;;;;;;4976815;28;8641;-85
2022/06/24 14:15:23;;;;;;;;;;;;;;;;;;4976119;28;8498;-86
2022/06/24 14:17:48;;;;;;;;;;;;;;;;;;4977429;28;8466;-86
2022/06/24 14:20:14;;;;;;;;;;;;;;;;;;4976361;28;7302;-86
2022/06/24 14:25:24;;;;;;;;;;;;;;;;;;4976814;28;7015;-86
2022/06/24 14:27:50;;;;;;;;;;;;;;;;;;4975339;28;8843;-86
2022/06/24 14:30:15;;;;;;;;;;;;;;;;;;4975610;28;8651;-86
2022/06/24 14:32:41;;;;;;;;;;;;;;;;;;4975078;28;8477;-86
2022/06/24 14:35:06;;;;;;;;;;;;;;;;;;4975479;28;8439;-86
2022/06/24 14:40:16;;;;;;;;;;;;;;;;;;4976401;28;6852;-88
2022/06/24 14:42:42;;;;;;;;;;;;;;;;;;4975060;28;8470;-88
2022/06/24 14:45:08;;;;;;;;;;;;;;;;;;4972514;28;8756;-87
2022/06/24 14:47:36;;;;;;;;;;;;;;;;;;4973203;28;8775;-88
2022/06/24 14:50:02;;;;;;;;;;;;;;;;;;4974887;28;8968;-87
2022/06/24 14:52:28;;;;;;;;;;;;;;;;;;4974704;28;8451;-88
2022/06/24 14:54:53;;;;;;;;;;;;;;;;;;4974279;28;8432;-89
2022/06/24 14:57:19;;;;;;;;;;;;;;;;;;4975582;28;7213;-88
2022/06/24 14:59:44;;;;;;;;;;;;;;;;;;4974711;28;8362;-87
2022/06/24 15:02:10;;;;;;;;;;;;;;;;;;4974472;28;7033;-88
2022/06/24 15:04:35;;;;;;;;;;;;;;;;;;4974870;28;8468;-87
2022/06/24 15:07:00;;;;;;;;;;;;;;;;;;4974766;28;8676;-88
2022/06/24 15:09:26;;;;;;;;;;;;;;;;;;4973950;28;7441;-87
2022/06/24 15:11:52;;;;;;;;;;;;;;;;;;4974929;28;7037;-88
2022/06/24 15:14:18;;;;;;;;;;;;;;;;;;4974752;28;7510;-87
2022/06/24 15:16:43;;;;;;;;;;;;;;;;;;4974791;28;8480;-88
2022/06/24 15:19:08;;;;;;;;;;;;;;;;;;4974660;28;8415;-87
2022/06/24 15:21:34;;;;;;;;;;;;;;;;;;4991169;28;8362;-87
2022/06/24 15:23:59;;;;;;;;;;;;;;;;;;4974835;28;8447;-87
2022/06/24 15:26:25;;;;;;;;;;;;;;;;;;4975127;28;8506;-87
2022/06/24 15:28:50;;;;;;;;;;;;;;;;;;4967064;28;7347;-86
2022/06/24 15:31:18;;;;;;;;;;;;;;;;;;4971518;28;7281;-88
2022/06/24 15:33:44;;;;;;;;;;;;;;;;;;4971502;28;7049;-88
2022/06/24 15:36:10;;;;;;;;;;;;;;;;;;4971506;28;8968;-86
2022/06/24 15:38:36;;;;;;;;;;;;;;;;;;4971450;28;7194;-88
2022/06/24 15:41:04;;;;;;;;;;;;;;;;;;4971563;28;7163;-88
2022/06/24 15:43:29;;;;;;;;;;;;;;;;;;4971356;28;8345;-87
2022/06/24 15:45:55;;;;;;;;;;;;;;;;;;4972140;28;8789;-87
2022/06/24 15:48:21;;;;;;;;;;;;;;;;;;4971599;28;7454;-87
2022/06/24 15:50:46;;;;;;;;;;;;;;;;;;4972129;28;8464;-86
2022/06/24 15:53:12;;;;;;;;;;;;;;;;;;4971460;28;7201;-86
2022/06/24 15:55:37;;;;;;;;;;;;;;;;;;4971331;28;8472;-87
2022/06/24 15:58:04;;;;;;;;;;;;;;;;;;4971314;28;8616;-87
2022/06/24 16:00:29;;;;;;;;;;;;;;;;;;4971381;28;8509;-87
2022/06/24 16:02:55;;;;;;;;;;;;;;;;;;4973112;28;8782;-87
2022/06/24 16:05:20;;;;;;;;;;;;;;;;;;4975120;28;9008;-87
2022/06/24 16:07:46;;;;;;;;;;;;;;;;;;4975293;28;8563;-88
2022/06/24 16:10:11;;;;;;;;;;;;;;;;;;4975135;28;7112;-87
2022/06/24 16:12:37;;;;;;;;;;;;;;;;;;4975000;28;8805;-87
2022/06/24 16:15:05;;;;;;;;;;;;;;;;;;4975084;28;8653;-87
2022/06/24 16:17:31;;;;;;;;;;;;;;;;;;4975203;28;8448;-87
2022/06/24 16:19:57;;;;;;;;;;;;;;;;;;4974786;28;7316;-88
2022/06/24 16:22:23;;;;;;;;;;;;;;;;;;4970662;28;7064;-86
2022/06/24 16:30:18;;;;;;;;;;;;;;;;;;4959858;28;6824;-88
2022/06/24 16:32:44;;;;;;;;;;;;;;;;;;4974717;28;7065;-88
2022/06/24 16:35:10;;;;;;;;;;;;;;;;;;4974564;28;8981;-87
2022/06/24 16:37:36;;;;;;;;;;;;;;;;;;4974602;28;8438;-87
2022/06/24 16:40:05;;;;;;;;;;;;;;;;;;4974587;28;8773;-87
2022/06/24 16:42:30;;;;;;;;;;;;;;;;;;4974577;28;8519;-87
2022/06/24 16:44:56;;;;;;;;;;;;;;;;;;4974253;28;8775;-87
2022/06/24 16:47:22;;;;;;;;;;;;;;;;;;4974539;28;7188;-87
2022/06/24 16:49:48;;;;;;;;;;;;;;;;;;4974304;28;7221;-87
2022/06/24 16:52:13;;;;;;;;;;;;;;;;;;4973858;28;8858;-87
2022/06/24 16:54:39;;;;;;;;;;;;;;;;;;4973947;28;6859;-87
2022/06/24 16:57:04;;;;;;;;;;;;;;;;;;4984315;28;7178;-87
2022/06/24 16:59:30;;;;;;;;;;;;;;;;;;4993091;28;8410;-87
2022/06/24 17:01:55;;;;;;;;;;;;;;;;;;4993820;28;8439;-87
2022/06/24 17:04:20;;;;;;;;;;;;;;;;;;4993198;28;8495;-87
2022/06/24 17:06:46;;;;;;;;;;;;;;;;;;4993203;28;8369;-87
2022/06/24 17:09:11;;;;;;;;;;;;;;;;;;4992998;28;7204;-86
2022/06/24 17:11:37;;;;;;;;;;;;;;;;;;4993474;28;7036;-86
2022/06/24 17:14:03;;;;;;;;;;;;;;;;;;4992645;28;8571;-87
2022/06/24 17:16:28;;;;;;;;;;;;;;;;;;4993331;28;8861;-86
2022/06/24 17:18:54;;;;;;;;;;;;;;;;;;4992943;28;8483;-87
2022/06/24 17:21:20;;;;;;;;;;;;;;;;;;4992696;28;8361;-87
2022/06/24 17:23:45;;;;;;;;;;;;;;;;;;4993188;28;7190;-87
2022/06/24 17:26:11;;;;;;;;;;;;;;;;;;4992925;28;8408;-87
2022/06/24 17:28:37;;;;;;;;;;;;;;;;;;4992697;28;7160;-87
2022/06/24 17:31:03;;;;;;;;;;;;;;;;;;4993118;28;7194;-87
2022/06/24 17:33:29;;;;;;;;;;;;;;;;;;4992946;28;8574;-86